Bridgehampton, NY (11932)

7:05 AM EDT on September 02, 2015 (GMT -0400)
Eastville | | Change Station
CLOSE
Current Station
Personal Weather Station
Location: Sag Harbor, NY
Elevation: 43 ft
Nearby Weather Stations
Active Advisory: Special Statement Active Notice: Record Report

Elev 43 ft 40.99 °N, 72.29 °W | Updated 18 seconds ago

Mostly Cloudy
Mostly Cloudy
69.1 °F
Feels Like 69.1 °F
N
0.0
Wind Variable Wind from South
Gusts 0.0 mph

Today
High -- | Low -- °F
--% Chance of Precip.
Yesterday
High -- | Low -- °F
Precip. -- in
6:16 AM 7:20 PM
Waning Gibbous, 81% visible
Pressure 30.05 in
Visibility 0.2 miles
Clouds
Dew Point 69 °F
Humidity 99%
Rainfall 0.00 in
Snow Depth Not available.
UV Not available.
Pollen 9.50 out of 12
Air Quality Not available.
Flu Activity Not available.
METAR KFOK 021053Z AUTO 00000KT M1/4SM FG VV001 19/19 A3005 RMK AO2 SLP176 T01940189 TSNO
Pressure 30.05 in
Visibility 0.2 miles
Clouds
Dew Point 69 °F
Humidity 99%
Rainfall 0.00 in
Snow Depth Not available.
UV Not available.
Pollen 9.50 out of 12
Air Quality Not available.
Flu Activity Not available.
METAR KFOK 021053Z AUTO 00000KT M1/4SM FG VV001 19/19 A3005 RMK AO2 SLP176 T01940189 TSNO

10-Day Weather Forecast

×

Almanac

Astronomy

Sep. 02, 2015 Rise Set
Actual Time
Civil Twilight
Nautical Twilight
Astronomical Twilight
Moon
Length of Visible Light
Length of Day
Tomorrow will be .
, % of the Moon is Illuminated

Today's Extremes

State Highs State Lows

Community

WunderPhotos

Upload Photos

1,851,731 photos uploaded!

WunderBlogs® & News

Nearby

Air Quality

  Air Quality AQ Index Pollutant
Not available.

Snow Depth

Station Depth Elevation

Earthquake Activity

City Distance Mag. Time & Date
Minimum magnitude displayed is 2.5.

Coastal Water Temperatures

Place Temperature

Stations

Nearby Weather Stations

Station Location Temp. Windchill Dew Point Humidity Wind Precip. Elev Updated Type
                   
Special Statement
Statement as of 5:20 AM EDT on September 02, 2015

... Patchy dense fog until 8 am...

Clear skies and calm winds will cause areas of fog until around 8
am.

A few patches of dense fog may briefly restrict visibility to 1/4
mile or less.

Motorists should exercise extra caution while driving through
early morning fog.



520 am EDT Wed Sep 2 2015

... Patchy dense fog until 8 am...

Clear skies and calm winds will cause areas of fog until around 8
am.

A few patches of dense fog may briefly restrict visibility to 1/4
mile or less.

Motorists should exercise extra caution while driving through
early morning fog.


520 am EDT Wed Sep 2 2015

... Patchy dense fog until 8 am...

Clear skies and calm winds will cause areas of fog until around 8
am.

A few patches of dense fog may briefly restrict visibility to 1/4
mile or less.

Motorists should exercise extra caution while driving through
early morning fog.